Flight Track Log - Related Links

Times and Time Zones

All times are in EDT time to prevent confusion due to time zone crossing. See the ASQ6041 flight status page for this flight to view local times or setup timezone preferences in your user account.

Time Position Orientation Groundspeed Altitude Reporting Facility
EDT Latitude Longitude Course Direction KTS km/h feet Rate Location/Type
Tue 06h58:55 33.5661 -86.7511 46° Northeast 156 290 1.200  Level Atlanta Center
Tue 07h00:07 33.6111 -86.6953 46° Northeast 190 352 3.500 1.864 Climbing Atlanta Center
Tue 07h01:07 33.6603 -86.6369 45° Northeast 209 388 5.300 2.250 Climbing Atlanta Center
Tue 07h02:07 33.7139 -86.5761 43° Northeast 244 452 8.000 2.550 Climbing Atlanta Center
Tue 07h03:07 33.7758 -86.5103 41° Northeast 267 494 10.400 2.500 Climbing Atlanta Center
Tue 07h04:07 33.8333 -86.4444 44° Northeast 280 518 13.000 1.800 Climbing Atlanta Center
Tue 07h05:07 33.8953 -86.3764 42° Northeast 280 518 14.000 950 Climbing Atlanta Center
Tue 07h06:07 33.9636 -86.2956 44° Northeast 307 568 14.900 1.150 Climbing Atlanta Center
Tue 07h07:07 34.0381 -86.2097 44° Northeast 337 624 16.300 1.400 Climbing Atlanta Center
Tue 07h08:07 34.1169 -86.1239 42° Northeast 356 660 17.700 1.250 Climbing Atlanta Center
Tue 07h09:07 34.1914 -86.0403 43° Northeast 363 673 18.800 1.150 Climbing Atlanta Center
Tue 07h10:07 34.2719 -85.9467 44° Northeast 376 697 20.000 1.567 Climbing Atlanta Center
Tue 07h12:07 34.4292 -85.7714 43° Northeast 378 700 23.500 1.833 Climbing Atlanta Center
Tue 07h13:07 34.5033 -85.6847 44° Northeast 378 700 25.500 1.550 Climbing Atlanta Center
Tue 07h14:07 34.5794 -85.5981 43° Northeast 373 690 26.600 850 Climbing Atlanta Center
Tue 07h15:07 34.6558 -85.5083 44° Northeast 373 690 27.200 850 Climbing Atlanta Center
Tue 07h16:07 34.7361 -85.4164 43° Northeast 379 702 28.300 1.150 Climbing Atlanta Center
Tue 07h17:07 34.8164 -85.3242 43° Northeast 384 711 29.500 1.150 Climbing Atlanta Center
Tue 07h18:07 34.8967 -85.2317 43° Northeast 384 711 30.600 1.150 Climbing Atlanta Center
Tue 07h19:07 34.9831 -85.1542 36° Northeast 384 711 31.800 1.100 Climbing Atlanta Center
Tue 07h20:07 35.0750 -85.1250 15° North 377 698 32.800 1.150 Climbing Atlanta Center
Tue 07h21:07 35.1858 -85.0958 12° North 375 695 34.100 1.100 Climbing Atlanta Center
Tue 07h22:07 35.2925 -85.0719 10° North 382 708 35.000 450 Climbing Atlanta Center
Tue 07h23:07 35.4056 -85.0428 12° North 395 732 35.000  Level Atlanta Center
Tue 07h24:07 35.5225 -85.0136 11° North 413 764 35.000  Level Atlanta Center
Tue 07h25:07 35.6375 -84.9842 12° North 413 764 35.000  Level Atlanta Center
Tue 07h26:07 35.7503 -84.9547 12° North 413 764 35.000  Level Atlanta Center
Tue 07h27:07 35.8819 -84.9203 12° North 413 764 35.000  Level Atlanta Center
Tue 07h28:07 35.9989 -84.8933 11° North 418 774 35.000  Level Atlanta Center
Tue 07h29:46 36.1736 -84.8450 13° North 420 777 35.000  Level Indianapolis Center
Tue 07h30:47 36.2897 -84.8142 12° North 426 789 35.000  Level Indianapolis Center
Tue 07h31:49 36.4072 -84.7836 12° North 429 795 35.000  Level Indianapolis Center
Tue 07h32:50 36.5231 -84.7494 13° North 429 795 35.000  Level Indianapolis Center
Tue 07h33:52 36.6619 -84.7089 13° North 426 789 35.000  Level Indianapolis Center
Tue 07h34:53 36.7767 -84.6753 13° North 424 785 35.000  Level Indianapolis Center
Tue 07h35:54 36.8917 -84.6408 13° North 422 782 35.000  Level Indianapolis Center
Tue 07h36:56 37.0064 -84.6064 13° North 423 784 35.000  Level Indianapolis Center
Tue 07h37:57 37.1233 -84.5936 North 430 797 35.000  Level Indianapolis Center
Tue 07h38:59 37.2322 -84.6272 346° North 407 753 35.000  Level Indianapolis Center
Tue 07h40:00 37.3453 -84.6619 346° North 413 764 35.000  Level Indianapolis Center
Tue 07h41:02 37.4578 -84.6978 346° North 414 766 35.000  Level Indianapolis Center
Tue 07h42:04 37.5881 -84.7367 347° North 412 763 35.000  Level Indianapolis Center
Tue 07h43:05 37.6989 -84.7722 346° North 410 760 35.000  Level Indianapolis Center
Tue 07h44:07 37.8106 -84.8069 346° North 412 763 35.000  Level Indianapolis Center
Tue 07h45:08 37.9208 -84.8431 346° North 409 758 35.000  Level Indianapolis Center
Tue 07h46:10 38.0353 -84.8767 347° North 420 777 35.000  Level Indianapolis Center
Tue 07h47:12 38.1528 -84.9133 346° North 433 801 35.000  Level Indianapolis Center
Tue 07h48:13 38.2700 -84.9497 346° North 433 801 35.000  Level Indianapolis Center
Tue 07h49:15 38.4033 -84.9931 346° North 424 785 35.000  Level Indianapolis Center
Tue 07h50:16 38.5214 -85.0294 346° North 434 803 35.000  Level Indianapolis Center
Tue 07h51:18 38.6375 -85.0653 346° North 431 798 35.000  Level Indianapolis Center
Tue 07h52:20 38.7478 -85.1044 345° North 423 784 35.000 -634 Level Indianapolis Center
Tue 07h53:21 38.8619 -85.1392 347° North 419 776 33.700 -1.366 Descending Indianapolis Center
Tue 07h54:23 38.9778 -85.1781 345° North 425 787 32.200 -1.452 Descending Indianapolis Center
Tue 07h55:25 39.0942 -85.2156 346° North 428 793 30.700 -1.597 Descending Indianapolis Center
Tue 07h56:27 39.2319 -85.2608 346° North 433 801 28.900 -1.317 Descending Indianapolis Center
Tue 07h57:28 39.3522 -85.2997 346° North 442 819 28.000 -439 Descending Indianapolis Center
Tue 07h58:30 39.4742 -85.3400 346° North 448 830 28.000  Level Indianapolis Center
Tue 07h59:32 39.5939 -85.3786 346° North 445 824 28.000 -194 Level Indianapolis Center
Tue 08h00:34 39.7156 -85.4194 346° North 435 806 27.600 -585 Descending Indianapolis Center
Tue 08h01:35 39.8350 -85.4336 355° North 437 810 26.800 -780 Descending Indianapolis Center
Tue 08h02:37 39.9531 -85.4194 North 424 785 26.000 -387 Descending Indianapolis Center
Tue 08h03:39 40.0597 -85.4089 North 394 729 26.000  Level Indianapolis Center
Tue 08h04:41 40.1683 -85.4000 North 387 716 26.000 -293 Level Indianapolis Center
Tue 08h05:42 40.2642 -85.4642 333° Northwest 387 716 25.400 -829 Descending Indianapolis Center
Tue 08h06:44 40.3608 -85.5531 325° Northwest 412 763 24.300 -677 Descending Indianapolis Center
Tue 08h07:46 40.4583 -85.6747 317° Northwest 410 760 24.000 -504 Descending Indianapolis Center
Tue 08h08:55 40.5400 -85.8083 309° West 411 761 23.200 -458 Descending Chicago Center
Tue 08h09:57 40.6103 -85.9233 309° West 407 753 23.000 -97 Descending Chicago Center
Tue 08h10:59 40.6808 -86.0397 309° West 406 752 23.000  Level Chicago Center
Tue 08h12:01 40.7506 -86.1572 308° West 406 752 23.000 -387 Level Chicago Center
Tue 08h13:03 40.8219 -86.2747 309° West 409 758 22.200 -919 Descending Chicago Center
Tue 08h14:05 40.8919 -86.3914 308° West 405 750 21.100 -1.016 Descending Chicago Center
Tue 08h15:07 40.9592 -86.5064 308° West 396 734 20.100 -1.065 Descending Chicago Center
Tue 08h16:09 41.0383 -86.6383 309° West 382 708 18.900 -1.016 Descending Chicago Center
Tue 08h17:11 41.1003 -86.7419 308° West 382 708 18.000 -1.113 Descending Chicago Center
Tue 08h18:13 41.1639 -86.8517 308° West 380 703 16.600 -1.500 Descending Chicago Center
Tue 08h19:15 41.2267 -86.9567 309° West 367 679 14.900 -2.081 Descending Chicago Center
Tue 08h20:17 41.2989 -87.0819 308° West 359 665 12.300 -1.887 Descending Chicago Center
Tue 08h21:19 41.3578 -87.1814 308° West 348 644 11.000 -690 Descending Chicago Center
Tue 08h22:10 41.4167 -87.2667 313° West 359 665 11.000 -218 Level Chicago TRACON
Tue 08h23:09 41.5000 -87.3500 323° Northwest 353 653 10.600 -504 Descending Chicago TRACON
Tue 08h24:09 41.5667 -87.4333 317° Northwest 345 639 10.000 -480 Descending Chicago TRACON
Tue 08h24:24 41.5767 -87.4394 335° Northwest 345 639 10.000  Level Chicago Center
Tue 08h25:26 41.6642 -87.5356 321° Northwest 343 636 10.000 -435 Level Chicago Center
Tue 08h26:28 41.7239 -87.6039 320° Northwest 287 531 9.100 -1.163 Descending Chicago Center
Tue 08h27:04 41.7667 -87.6500 321° Northwest 278 515 8.100 -1.250 Descending Chicago TRACON
Tue 08h28:04 41.8333 -87.7000 331° Northwest 282 523 7.100 -550 Descending Chicago TRACON
Tue 08h29:04 41.9000 -87.7000 360° North 290 538 7.000 -100 Descending Chicago TRACON
Tue 08h30:04 41.9833 -87.6833 North 256 475 6.900 -850 Descending Chicago TRACON
Tue 08h31:04 42.0333 -87.6500 26° Northeast 252 467 5.300 -1.381 Descending Chicago TRACON
Tue 08h32:10 42.0833 -87.6833 334° Northwest 177 328 4.000 -1.048 Descending Chicago TRACON
Tue 08h33:10 42.0833 -87.7333 270° West 150 278 3.100 -684 Descending Chicago TRACON
Tue 08h34:04 42.0500 -87.7667 217° Southwest 134 248 2.700 -417 Descending Chicago TRACON
Tue 08h35:05 42.0333 -87.8000 236° Southwest 119 220 2.300 -446 Descending Chicago TRACON
Tue 08h36:05 42.0167 -87.8333 236° Southwest 99 183 1.800 -550 Descending Chicago TRACON
Tue 08h37:05 41.9833 -87.8500 200° South 116 214 1.200 -600 Descending Chicago TRACON
Tue 08h39:00 41.9667 -87.9000 285° West  Level FlightAware Approximate

Login

Don't have an account? Register now (free) for customized features, flight alerts, and more!